Startpagina
METAR-TAF:

METAR-TAF

Vliegvelden :

Bric della Croce

Turijn, Italië

breedte: 45-02N, lengte: 007-44E, hoogte: 709 m

Actueel weer

Dit bericht is 32 minuten geleden gemaakt, om 02:55 UTC
Wind 4 kt uit het zuidoosten
Temperatuur 13°C
Vochtigheid 82%
Druk 1026 hPa
Zicht 10 km of meer
geen wolken onder 1500 m en geen cumulonimbus

METAR: LIMK 210255Z 14004KT CAVOK 13/10 Q1026 RMK BKN BKN070 VAL NIL VIS MIN 9999

Tijdstip: 05:27 (03:27 UTC)


TAF: ontbreekt

Waarnemingen en weersverwachtingen van meer dan 4000 vliegvelden (METAR en TAF).

De beschikbare stations zijn de gele en rode punten op de kaart.

Ga met uw muis naar het station om de naam te zien.

Klik dan om waarnemingen en weersverwachtingen te zien.

kaart wijzigen: klik op de groene knoppen met een zwart kruis om in te zoomen, op de groene knop met een streepje om uit te zoomen of op de groene pijlen voor aangrenzende kaarten.


METAR-TAF: